Time;durP1;ratioP1;P1;durP2;ratioP2;P2;SDS_P1;SDS_P2;PMS_P1;PMS_P2;Temp;Humidity;BMP_temperature;BMP_pressure;BME280_temperature;BME280_humidity;BME280_pressure;Samples;Min_cycle;Max_cycle;Signal;HPM_P1;HPM_P2
2022/07/31 00:00:41;;;;;;;1999.90;999.90;;;;;;;16.62;100.00;95436.63;5053646;28;20201;-76
2022/07/31 00:03:07;;;;;;;1999.90;999.90;;;;;;;16.59;100.00;95434.72;5053803;28;20190;-73
2022/07/31 00:05:33;;;;;;;1999.90;999.90;;;;;;;16.58;100.00;95419.41;5070558;28;20205;-71
2022/07/31 00:08:00;;;;;;;1999.90;999.90;;;;;;;16.56;100.00;95424.56;5053998;28;20339;-72
2022/07/31 00:10:26;;;;;;;1999.90;999.90;;;;;;;16.54;100.00;95421.50;5070486;28;20201;-71
2022/07/31 00:12:51;;;;;;;1999.90;999.90;;;;;;;16.46;100.00;95420.19;5070649;28;20195;-58
2022/07/31 00:15:18;;;;;;;1999.90;999.90;;;;;;;16.37;100.00;95416.06;5070343;28;20225;-64
2022/07/31 00:17:44;;;;;;;1999.90;999.90;;;;;;;16.37;100.00;95418.81;5054394;28;20186;-76
2022/07/31 00:20:14;;;;;;;1999.90;999.90;;;;;;;16.31;100.00;95417.81;5054456;28;20269;-71
2022/07/31 00:22:44;;;;;;;1999.90;999.90;;;;;;;16.26;100.00;95418.38;5070267;28;20268;-67
2022/07/31 00:25:11;;;;;;;1999.90;999.90;;;;;;;16.24;100.00;95426.28;5053882;28;20190;-67
2022/07/31 00:27:38;;;;;;;1999.90;999.90;;;;;;;16.29;100.00;95417.47;5070458;28;20272;-66
2022/07/31 00:30:04;;;;;;;1999.90;999.90;;;;;;;16.24;100.00;95411.72;5054882;28;20189;-71
2022/07/31 00:32:30;;;;;;;1999.90;999.90;;;;;;;16.19;100.00;95413.06;5054423;28;20173;-61
2022/07/31 00:34:55;;;;;;;1999.90;999.90;;;;;;;16.18;100.00;95419.78;5070673;28;20272;-74
2022/07/31 00:37:20;;;;;;;1999.90;999.90;;;;;;;16.15;100.00;95417.13;5070546;28;20190;-72
2022/07/31 00:39:46;;;;;;;1999.90;999.90;;;;;;;16.14;100.00;95418.34;5053695;28;20212;-77
2022/07/31 00:42:22;;;;;;;1999.90;999.90;;;;;;;16.11;100.00;95422.72;5053946;28;20213;-75
2022/07/31 00:44:48;;;;;;;1999.90;999.90;;;;;;;16.18;100.00;95417.00;5069790;28;20192;-70
2022/07/31 00:47:13;;;;;;;1999.90;999.90;;;;;;;16.19;100.00;95418.59;5053970;28;20185;-74
2022/07/31 00:49:39;;;;;;;1999.90;999.90;;;;;;;16.19;100.00;95418.59;5053479;28;20190;-63
2022/07/31 00:52:05;;;;;;;1999.90;999.90;;;;;;;16.21;100.00;95421.66;5070036;28;20198;-64
2022/07/31 00:54:31;;;;;;;1999.90;999.90;;;;;;;16.21;100.00;95418.16;5053210;28;20182;-64
2022/07/31 00:56:56;;;;;;;1999.90;999.90;;;;;;;16.19;100.00;95417.78;5070189;28;20197;-65
2022/07/31 00:59:21;;;;;;;1999.90;999.90;;;;;;;16.19;100.00;95423.31;5069449;28;20233;-64
2022/07/31 01:01:47;;;;;;;1999.90;999.90;;;;;;;16.25;100.00;95430.59;5053289;28;20268;-62
2022/07/31 01:04:14;;;;;;;1999.90;999.90;;;;;;;16.25;100.00;95427.81;5053088;28;20186;-62
2022/07/31 01:06:39;;;;;;;1999.90;999.90;;;;;;;16.25;100.00;95432.59;5070076;28;20193;-61
2022/07/31 01:09:05;;;;;;;1999.90;999.90;;;;;;;16.21;100.00;95429.91;5053054;28;20209;-55
2022/07/31 01:11:54;;;;;;;1999.90;999.90;;;;;;;16.22;100.00;95431.47;5053024;28;20197;-71
2022/07/31 01:14:23;;;;;;;1999.90;999.90;;;;;;;16.22;100.00;95438.97;5069872;28;20189;-71
2022/07/31 01:16:52;;;;;;;1999.90;999.90;;;;;;;16.25;100.00;95443.63;5053436;28;20182;-73
2022/07/31 01:19:22;;;;;;;1999.90;999.90;;;;;;;16.21;100.00;95438.19;5053907;28;20205;-71
2022/07/31 01:22:11;;;;;;;1999.90;999.90;;;;;;;16.19;100.00;95490.22;5194619;27;20375;-75
2022/07/31 01:24:58;;;;;;;1999.90;999.90;;;;;;;16.22;100.00;95483.81;5155519;27;20250;-72
2022/07/31 01:27:47;;;;;;;1999.90;999.90;;;;;;;16.22;100.00;95492.09;5155409;27;20272;-62
2022/07/31 01:30:12;;;;;;;1999.90;999.90;;;;;;;16.27;100.00;95480.53;5154546;27;20170;-64
2022/07/31 01:32:43;;;;;;;1999.90;999.90;;;;;;;16.37;100.00;95473.16;5154892;27;20174;-66
2022/07/31 01:35:20;;;;;;;1999.90;999.90;;;;;;;16.42;100.00;95476.19;5154321;27;20177;-65
2022/07/31 01:37:59;;;;;;;1999.90;999.90;;;;;;;16.43;100.00;95477.72;5154361;27;20182;-65
2022/07/31 01:40:34;;;;;;;1999.90;999.90;;;;;;;16.49;100.00;95480.72;5155196;27;20221;-66
2022/07/31 01:43:05;;;;;;;1999.90;999.90;;;;;;;16.53;100.00;95480.63;5154619;27;20185;-67
2022/07/31 01:45:32;;;;;;;1999.90;999.90;;;;;;;16.57;100.00;95492.31;5154693;27;20241;-67
2022/07/31 01:48:00;;;;;;;1999.90;999.90;;;;;;;16.57;100.00;95495.84;5154427;27;20182;-62
2022/07/31 01:50:26;;;;;;;1999.90;999.90;;;;;;;16.56;100.00;95507.28;5154094;27;20234;-61
2022/07/31 01:52:53;;;;;;;1999.90;999.90;;;;;;;16.58;100.00;95511.19;5154176;27;20185;-60
2022/07/31 01:55:19;;;;;;;1999.90;999.90;;;;;;;16.61;100.00;95509.53;5154505;27;20188;-61
2022/07/31 01:57:46;;;;;;;1999.90;999.90;;;;;;;16.64;100.00;95512.16;5154311;27;20243;-60
2022/07/31 02:00:12;;;;;;;1999.90;999.90;;;;;;;16.63;100.00;95523.63;5154008;27;20198;-61
2022/07/31 02:02:39;;;;;;;1999.90;999.90;;;;;;;16.64;100.00;95530.72;5153971;27;20631;-62
2022/07/31 02:05:06;;;;;;;1999.90;999.90;;;;;;;16.65;100.00;95532.25;5153960;27;20193;-64
2022/07/31 02:07:40;;;;;;;1999.90;999.90;;;;;;;16.64;100.00;95536.25;5154354;27;20190;-66
2022/07/31 02:10:08;;;;;;;1999.90;999.90;;;;;;;16.64;100.00;95541.75;5138059;27;20297;-67
2022/07/31 02:12:36;;;;;;;1999.90;999.90;;;;;;;16.69;100.00;95549.47;5133256;27;20208;-65
2022/07/31 02:15:07;;;;;;;1999.90;999.90;;;;;;;16.71;100.00;95552.59;5133389;27;20516;-66
2022/07/31 02:17:35;;;;;;;1999.90;999.90;;;;;;;16.73;100.00;95561.16;5133391;27;20214;-65
2022/07/31 02:20:04;;;;;;;1999.90;999.90;;;;;;;16.71;100.00;95569.13;5133102;27;20238;-67
2022/07/31 02:22:30;;;;;;;1999.90;999.90;;;;;;;16.76;100.00;95561.09;5133051;27;20281;-71
2022/07/31 02:24:55;;;;;;;1999.90;999.90;;;;;;;16.75;100.00;95572.56;5132837;27;20207;-68
2022/07/31 02:27:23;;;;;;;1999.90;999.90;;;;;;;16.76;100.00;95572.13;5133013;27;20281;-65
2022/07/31 02:29:49;;;;;;;1999.90;999.90;;;;;;;16.78;100.00;95585.47;5132982;27;20189;-67
2022/07/31 02:32:16;;;;;;;1999.90;999.90;;;;;;;16.78;100.00;95591.00;5125402;28;20195;-66
2022/07/31 02:34:44;;;;;;;1999.90;999.90;;;;;;;16.80;100.00;95596.81;5119151;28;20175;-67
2022/07/31 02:37:11;;;;;;;1999.90;999.90;;;;;;;16.80;100.00;95594.06;5119419;28;20190;-68
2022/07/31 02:39:37;;;;;;;1999.90;999.90;;;;;;;16.83;100.00;95602.25;5119116;28;20187;-66
2022/07/31 02:42:04;;;;;;;1999.90;999.90;;;;;;;16.90;100.00;95595.75;5119533;28;20265;-60
2022/07/31 02:44:31;;;;;;;1999.90;999.90;;;;;;;16.94;100.00;95588.16;5119199;28;20182;-68
2022/07/31 02:46:58;;;;;;;1999.90;999.90;;;;;;;16.95;100.00;95590.47;5119014;28;20193;-70
2022/07/31 02:49:24;;;;;;;1999.90;999.90;;;;;;;16.98;100.00;95586.06;5118913;28;20182;-69
2022/07/31 02:51:50;;;;;;;1999.90;999.90;;;;;;;16.97;100.00;95587.28;5119069;28;20628;-67
2022/07/31 02:54:16;;;;;;;1999.90;999.90;;;;;;;16.97;100.00;95587.28;5119333;28;20183;-70
2022/07/31 02:56:42;;;;;;;1999.90;999.90;;;;;;;16.99;100.00;95579.31;5118651;28;20186;-70
2022/07/31 02:59:07;;;;;;;1999.90;999.90;;;;;;;17.03;100.00;95579.97;5118800;28;20184;-67
2022/07/31 03:01:34;;;;;;;1999.90;999.90;;;;;;;17.02;100.00;95579.22;5118438;28;20258;-62
2022/07/31 03:04:00;;;;;;;1999.90;999.90;;;;;;;17.06;100.00;95573.56;5137177;28;20179;-61
2022/07/31 03:06:25;;;;;;;1999.90;999.90;;;;;;;17.05;100.00;95572.81;5119008;28;20331;-62
2022/07/31 03:08:51;;;;;;;1999.90;999.90;;;;;;;17.06;100.00;95570.81;5118376;28;20207;-62
2022/07/31 03:11:17;;;;;;;1999.90;999.90;;;;;;;17.09;100.00;95564.44;5118883;28;20255;-62
2022/07/31 03:13:44;;;;;;;1999.90;999.90;;;;;;;17.07;100.00;95553.03;5136711;28;20179;-61
2022/07/31 03:16:11;;;;;;;1999.90;999.90;;;;;;;17.07;100.00;95544.75;5118641;28;20194;-61
2022/07/31 03:18:38;;;;;;;1999.90;999.90;;;;;;;17.11;100.00;95531.66;5118535;28;20549;-63
2022/07/31 03:21:04;;;;;;;1999.90;999.90;;;;;;;17.13;100.00;95529.22;5118714;28;20652;-62
2022/07/31 03:23:35;;;;;;;1999.90;999.90;;;;;;;17.14;100.00;95530.75;5118663;28;20244;-66
2022/07/31 03:26:01;;;;;;;1999.90;999.90;;;;;;;17.14;100.00;95530.75;5118674;28;20647;-70
2022/07/31 03:28:27;;;;;;;1999.90;999.90;;;;;;;17.15;100.00;95532.31;5118450;28;20183;-63
2022/07/31 03:30:54;;;;;;;1999.90;999.90;;;;;;;17.15;100.00;95529.56;5118196;28;20187;-67
2022/07/31 03:33:19;;;;;;;1999.90;999.90;;;;;;;17.14;100.00;95528.75;5118259;28;20693;-68
2022/07/31 03:35:45;;;;;;;1999.90;999.90;;;;;;;17.16;100.00;95531.09;5118050;28;20195;-73
2022/07/31 03:38:10;;;;;;;1999.90;999.90;;;;;;;17.16;100.00;95528.31;5118727;28;20183;-67
2022/07/31 03:40:35;;;;;;;1999.90;999.90;;;;;;;17.18;100.00;95525.88;5118620;28;20213;-54
2022/07/31 03:43:02;;;;;;;1999.90;999.90;;;;;;;17.22;100.00;95532.09;5117556;27;20179;-58
2022/07/31 03:45:29;;;;;;;1999.90;999.90;;;;;;;17.26;100.00;95524.47;5135632;28;20228;-54
2022/07/31 03:47:55;;;;;;;1999.90;999.90;;;;;;;17.26;100.00;95524.47;5118160;28;20179;-57
2022/07/31 03:50:21;;;;;;;1999.90;999.90;;;;;;;17.25;100.00;95531.19;5117755;28;20183;-59
2022/07/31 03:52:48;;;;;;;1999.90;999.90;;;;;;;17.27;100.00;95539.81;5118007;28;20179;-59
2022/07/31 03:55:13;;;;;;;1999.90;999.90;;;;;;;17.28;100.00;95541.34;5117925;28;20187;-68
2022/07/31 03:57:41;;;;;;;1999.90;999.90;;;;;;;17.28;100.00;95541.34;5117878;28;20194;-63
2022/07/31 04:00:07;;;;;;;1999.90;999.90;;;;;;;17.28;100.00;95546.88;5117448;28;20281;-63
2022/07/31 04:02:33;;;;;;;1999.90;999.90;;;;;;;17.39;100.00;95558.34;5117686;28;20175;-62
2022/07/31 04:04:58;;;;;;;1999.90;999.90;;;;;;;17.47;100.00;95573.50;5117627;28;20190;-61
2022/07/31 04:07:24;;;;;;;1999.90;999.90;;;;;;;17.46;100.00;95569.19;5117751;28;20183;-62
2022/07/31 04:09:50;;;;;;;1999.90;999.90;;;;;;;17.45;100.00;95579.47;5117436;28;20211;-61
2022/07/31 04:12:16;;;;;;;1999.90;999.90;;;;;;;17.42;100.00;95579.59;5117481;28;20195;-63
2022/07/31 04:14:41;;;;;;;1999.90;999.90;;;;;;;17.48;100.00;95584.09;5117531;28;20251;-75
2022/07/31 04:17:07;;;;;;;1999.90;999.90;;;;;;;17.70;100.00;95598.03;5117769;28;20231;-73
2022/07/31 04:19:33;;;;;;;1999.90;999.90;;;;;;;17.94;100.00;95607.47;5117744;28;20194;-72
2022/07/31 04:21:59;;;;;;;1999.90;999.90;;;;;;;18.15;100.00;95626.13;5117484;28;20297;-75
2022/07/31 04:24:25;;;;;;;1999.90;999.90;;;;;;;18.24;100.00;95640.03;5117497;28;20231;-78
2022/07/31 04:26:53;;;;;;;1999.90;999.90;;;;;;;18.25;100.00;95670.00;5117372;28;20189;-73
2022/07/31 04:29:18;;;;;;;1999.90;999.90;;;;;;;18.23;100.00;95683.50;5117625;28;20287;-72
2022/07/31 04:31:44;;;;;;;1999.90;999.90;;;;;;;18.24;100.00;95684.25;5117523;28;20213;-69
2022/07/31 04:34:09;;;;;;;1999.90;999.90;;;;;;;18.20;100.00;95694.66;5117340;28;20194;-64
2022/07/31 04:36:34;;;;;;;1999.90;999.90;;;;;;;18.27;100.00;95705.50;5117165;28;20191;-62
2022/07/31 04:39:00;;;;;;;1999.90;999.90;;;;;;;18.29;100.00;95714.13;5116960;28;20183;-64
2022/07/31 04:41:26;;;;;;;1999.90;999.90;;;;;;;18.44;100.00;95729.06;5117654;28;20227;-62
2022/07/31 04:43:52;;;;;;;1999.90;999.90;;;;;;;18.50;100.00;95730.06;5117633;28;20198;-63
2022/07/31 04:46:17;;;;;;;1999.90;999.90;;;;;;;18.74;100.00;95733.97;5117239;28;20183;-63
2022/07/31 04:48:43;;;;;;;1999.90;999.90;;;;;;;18.88;100.00;95752.84;5117196;28;20183;-79
2022/07/31 04:51:15;;;;;;;1999.90;999.90;;;;;;;19.14;100.00;95774.47;5117055;28;20194;-69
2022/07/31 04:53:41;;;;;;;1999.90;999.90;;;;;;;19.27;100.00;95793.84;5116885;28;20229;-69
2022/07/31 04:58:50;;;;;;;1999.90;999.90;;;;;;;19.57;100.00;95823.63;5135360;28;20190;-69
2022/07/31 05:01:15;;;;;;;1999.90;999.90;;;;;;;19.65;100.00;95836.00;5116749;28;20199;-64
2022/07/31 05:03:41;;;;;;;1999.90;999.90;;;;;;;19.78;100.00;95847.81;5117368;28;20194;-66
2022/07/31 05:06:11;;;;;;;1999.90;999.90;;;;;;;20.07;100.00;95856.59;5116850;28;20179;-64
2022/07/31 05:08:37;;;;;;;1999.90;999.90;;;;;;;20.46;100.00;95880.91;5116597;28;20232;-66
2022/07/31 05:11:21;;;;;;;1999.90;999.90;;;;;;;21.42;100.00;95912.72;5116906;28;20228;-61
2022/07/31 05:13:49;;;;;;;1999.90;999.90;;;;;;;22.22;100.00;95955.75;5117033;28;20269;-62
2022/07/31 05:16:15;;;;;;;1999.90;999.90;;;;;;;22.91;100.00;96002.38;5116836;28;20191;-62
2022/07/31 05:18:41;;;;;;;1999.90;999.90;;;;;;;23.78;100.00;96030.88;5116339;28;20190;-62
2022/07/31 05:21:06;;;;;;;1999.90;999.90;;;;;;;23.99;100.00;96071.69;5117219;28;20268;-61
2022/07/31 05:23:31;;;;;;;1999.90;999.90;;;;;;;24.15;100.00;96085.25;5116644;28;20524;-62
2022/07/31 05:25:57;;;;;;;1999.90;999.90;;;;;;;23.34;100.00;96078.00;5116190;28;20551;-63
2022/07/31 05:28:22;;;;;;;1999.90;999.90;;;;;;;23.55;100.00;96071.41;5116659;28;20587;-70
2022/07/31 05:30:47;;;;;;;1999.90;999.90;;;;;;;24.40;100.00;96079.19;5116230;28;20178;-63
2022/07/31 05:33:13;;;;;;;1999.90;999.90;;;;;;;25.39;100.00;96092.31;5116435;28;20233;-62
2022/07/31 05:35:38;;;;;;;1999.90;999.90;;;;;;;26.47;100.00;96115.34;5116343;28;20183;-62
2022/07/31 05:38:04;;;;;;;1999.90;999.90;;;;;;;27.27;100.00;96113.28;5116752;28;20190;-64
2022/07/31 05:40:29;;;;;;;1999.90;999.90;;;;;;;27.61;100.00;96103.91;5116098;28;20203;-61
2022/07/31 05:42:54;;;;;;;1999.90;999.90;;;;;;;28.16;100.00;95643.50;5116359;28;20251;-63
2022/07/31 05:45:20;;;;;;;1999.90;999.90;;;;;;;29.04;100.00;95633.34;5116181;28;20179;-66
2022/07/31 05:47:45;;;;;;;1999.90;999.90;;;;;;;29.57;100.00;95627.19;5116245;28;20218;-70
2022/07/31 05:50:10;;;;;;;1999.90;999.90;;;;;;;29.45;98.88;95615.22;5116613;28;20219;-71
2022/07/31 05:52:36;;;;;;;1999.90;999.90;;;;;;;29.39;95.30;95602.47;5116393;28;20183;-63
2022/07/31 05:55:02;;;;;;;1999.90;999.90;;;;;;;29.86;92.03;95612.41;5116151;28;20178;-71
2022/07/31 05:57:27;;;;;;;1999.90;999.90;;;;;;;29.61;87.91;95605.16;5116028;28;20211;-73
2022/07/31 05:59:52;;;;;;;1999.90;999.90;;;;;;;28.54;91.76;95605.41;5116019;28;20179;-70
2022/07/31 06:02:18;;;;;;;1999.90;999.90;;;;;;;27.56;100.00;95601.38;5116005;28;20179;-65
2022/07/31 06:04:43;;;;;;;1999.90;999.90;;;;;;;26.83;100.00;95591.25;5116034;28;20179;-66
2022/07/31 06:07:08;;;;;;;1999.90;999.90;;;;;;;26.51;100.00;95587.00;5117131;28;20220;-63
2022/07/31 06:09:34;;;;;;;1999.90;999.90;;;;;;;26.36;100.00;95585.69;5119467;28;20206;-62
2022/07/31 06:11:59;;;;;;;1999.90;999.90;;;;;;;26.22;100.00;95592.97;5119435;28;20198;-64
2022/07/31 06:14:24;;;;;;;1999.90;999.90;;;;;;;26.39;100.00;95591.03;5119450;28;20240;-62
2022/07/31 06:16:51;;;;;;;1999.90;999.90;;;;;;;26.53;100.00;95578.88;5119410;28;20187;-63
2022/07/31 06:19:19;;;;;;;1999.90;999.90;;;;;;;26.54;100.00;95586.00;5119367;28;20215;-62
2022/07/31 06:21:44;;;;;;;1999.90;999.90;;;;;;;26.71;100.00;95584.06;5119780;28;20175;-67
2022/07/31 06:24:10;;;;;;;1999.90;999.90;;;;;;;26.51;100.00;95575.06;5119303;28;20182;-62
2022/07/31 06:26:35;;;;;;;1999.90;999.90;;;;;;;26.06;100.00;95579.66;5119702;28;20308;-63
2022/07/31 06:29:00;;;;;;;1999.90;999.90;;;;;;;25.59;100.00;95585.88;5119620;28;20208;-62
2022/07/31 06:31:26;;;;;;;1999.90;999.90;;;;;;;25.11;100.00;95584.91;5119305;28;20203;-64
2022/07/31 06:33:51;;;;;;;1999.90;999.90;;;;;;;24.90;100.00;95583.41;5118960;28;20240;-62
2022/07/31 06:36:17;;;;;;;1999.90;999.90;;;;;;;24.80;100.00;95584.84;5119224;28;20187;-62
2022/07/31 06:38:43;;;;;;;1999.90;999.90;;;;;;;24.66;100.00;95577.31;5119172;28;20218;-65
2022/07/31 06:41:08;;;;;;;1999.90;999.90;;;;;;;24.61;100.00;95580.75;5119073;28;20210;-63
2022/07/31 06:43:33;;;;;;;1999.90;999.90;;;;;;;24.65;100.00;95575.75;5118879;28;20265;-67
2022/07/31 06:45:59;;;;;;;1999.90;999.90;;;;;;;24.66;100.00;95572.47;5118886;28;20187;-63
2022/07/31 06:48:24;;;;;;;1999.90;999.90;;;;;;;24.68;100.00;95575.56;5118896;28;20282;-64
2022/07/31 06:50:49;;;;;;;1999.90;999.90;;;;;;;24.72;100.00;95572.53;5118975;28;20242;-63
2022/07/31 06:53:15;;;;;;;1999.90;999.90;;;;;;;24.64;100.00;95571.44;5119474;28;20187;-69
2022/07/31 06:55:40;;;;;;;1999.90;999.90;;;;;;;24.53;100.00;95576.88;5118993;28;20277;-63
2022/07/31 06:58:06;;;;;;;1999.90;999.90;;;;;;;24.31;100.00;95573.78;5136808;28;20183;-62
2022/07/31 07:00:31;;;;;;;1999.90;999.90;;;;;;;24.24;100.00;95577.00;5118620;28;20249;-61
2022/07/31 07:02:56;;;;;;;1999.90;999.90;;;;;;;24.25;100.00;95581.31;5119175;28;20236;-62
2022/07/31 07:05:22;;;;;;;1999.90;999.90;;;;;;;24.15;100.00;95577.91;5119388;28;20278;-61
2022/07/31 07:07:47;;;;;;;1999.90;999.90;;;;;;;24.04;100.00;95582.56;5118463;28;20191;-63
2022/07/31 07:10:12;;;;;;;1999.90;999.90;;;;;;;24.09;100.00;95584.66;5118786;28;20210;-63
2022/07/31 07:12:38;;;;;;;1999.90;999.90;;;;;;;24.07;100.00;95598.34;5118401;28;20179;-62
2022/07/31 07:15:04;;;;;;;1999.90;999.90;;;;;;;24.11;100.00;95593.34;5118532;28;20183;-63
2022/07/31 07:17:29;;;;;;;1999.90;999.90;;;;;;;23.94;100.00;95592.31;5118149;27;20187;-69
2022/07/31 07:19:55;;;;;;;1999.90;999.90;;;;;;;24.01;100.00;95594.72;5118330;28;20183;-63
2022/07/31 07:22:20;;;;;;;1999.90;999.90;;;;;;;23.92;100.00;95580.81;5118293;28;20183;-63
2022/07/31 07:24:46;;;;;;;1999.90;999.90;;;;;;;24.05;100.00;95576.50;5118224;28;20218;-67
2022/07/31 07:27:11;;;;;;;1999.90;999.90;;;;;;;24.22;100.00;95576.72;5118356;28;20215;-60
2022/07/31 07:29:36;;;;;;;1999.90;999.90;;;;;;;24.19;100.00;95586.09;5118170;28;20190;-64
2022/07/31 07:32:02;;;;;;;1999.90;999.90;;;;;;;24.22;100.00;95574.69;5118134;28;20211;-62
2022/07/31 07:34:28;;;;;;;1999.90;999.90;;;;;;;24.36;100.00;95575.91;5118138;28;20186;-63
2022/07/31 07:36:54;;;;;;;1999.90;999.90;;;;;;;24.61;100.00;95575.97;5117921;28;20186;-66
2022/07/31 07:39:20;;;;;;;1999.90;999.90;;;;;;;24.73;100.00;95572.06;5118722;28;20183;-61
2022/07/31 07:41:45;;;;;;;1999.90;999.90;;;;;;;24.94;100.00;95570.00;5118215;28;20191;-62
2022/07/31 07:44:11;;;;;;;1999.90;999.90;;;;;;;25.12;100.00;95564.84;5118661;28;20235;-61
2022/07/31 07:46:36;;;;;;;1999.90;999.90;;;;;;;25.12;100.00;95569.66;5118412;28;20269;-60
2022/07/31 07:49:03;;;;;;;1999.90;999.90;;;;;;;25.36;100.00;95567.38;5117977;28;20179;-61
2022/07/31 07:51:28;;;;;;;1999.90;999.90;;;;;;;25.49;100.00;95559.34;5118121;28;20199;-63
2022/07/31 07:53:54;;;;;;;1999.90;999.90;;;;;;;25.31;100.00;95557.69;5117966;28;20209;-64
2022/07/31 07:56:19;;;;;;;1999.90;999.90;;;;;;;25.25;100.00;95556.06;5118046;28;20267;-66
2022/07/31 07:58:45;;;;;;;1999.90;999.90;;;;;;;25.46;100.00;95551.97;5117576;28;20215;-64
2022/07/31 08:01:10;;;;;;;1999.90;999.90;;;;;;;25.54;100.00;95555.06;5117511;28;20190;-65
2022/07/31 08:03:36;;;;;;;1999.90;999.90;;;;;;;25.73;100.00;95548.59;5117625;28;20186;-65
2022/07/31 08:06:01;;;;;;;1999.90;999.90;;;;;;;26.05;100.00;95550.13;5118241;28;20190;-62
2022/07/31 08:08:26;;;;;;;1999.90;999.90;;;;;;;26.37;100.00;95554.34;5117468;27;20179;-63
2022/07/31 08:10:52;;;;;;;1999.90;999.90;;;;;;;26.66;100.00;95553.22;5118214;28;20282;-65
2022/07/31 08:13:17;;;;;;;1999.90;999.90;;;;;;;26.73;100.00;95563.97;5135695;28;20258;-63
2022/07/31 08:15:43;;;;;;;1999.90;999.90;;;;;;;26.95;100.00;95547.94;5117616;28;20187;-60
2022/07/31 08:18:08;;;;;;;1999.90;999.90;;;;;;;27.51;100.00;95557.22;5117587;28;20223;-63
2022/07/31 08:20:36;;;;;;;1999.90;999.90;;;;;;;27.97;95.37;95563.84;5117602;28;20250;-60
2022/07/31 08:23:01;;;;;;;1999.90;999.90;;;;;;;28.05;89.43;95564.84;5117326;28;20270;-61
2022/07/31 08:25:27;;;;;;;1999.90;999.90;;;;;;;28.55;89.24;95561.19;5117934;28;20218;-62
2022/07/31 08:27:52;;;;;;;1999.90;999.90;;;;;;;28.77;83.92;95566.72;5117214;28;20190;-61
2022/07/31 08:30:17;;;;;;;1999.90;999.90;;;;;;;29.09;82.07;95573.50;5116482;28;20191;-63
2022/07/31 08:32:43;;;;;;;1999.90;999.90;;;;;;;30.24;76.96;95571.84;5117260;28;20194;-65
2022/07/31 08:35:08;;;;;;;1999.90;999.90;;;;;;;31.57;68.93;95582.97;5117235;28;20225;-66
2022/07/31 08:37:33;;;;;;;1999.90;999.90;;;;;;;32.54;62.10;95589.59;5135333;28;20194;-59
2022/07/31 08:39:59;;;;;;;1999.90;999.90;;;;;;;32.89;58.90;95585.59;5117513;28;20183;-61
2022/07/31 08:42:24;;;;;;;1999.90;999.90;;;;;;;34.37;53.26;95584.19;5117550;28;20214;-61
2022/07/31 08:44:50;;;;;;;1999.90;999.90;;;;;;;35.56;46.97;95586.22;5117266;28;20171;-60
2022/07/31 08:47:16;;;;;;;1999.90;999.90;;;;;;;37.10;40.39;95588.00;5117069;28;20277;-60
2022/07/31 08:49:44;;;;;;;1999.90;999.90;;;;;;;36.47;41.27;95587.13;5117383;28;20205;-60
2022/07/31 08:52:16;;;;;;;1999.90;999.90;;;;;;;36.37;43.26;95583.31;5116586;28;20222;-63
2022/07/31 08:54:42;;;;;;;1999.90;999.90;;;;;;;36.71;38.91;95580.09;5116687;28;20164;-60
2022/07/31 08:57:09;;;;;;;1999.90;999.90;;;;;;;37.26;38.99;95584.53;5116698;28;20201;-62
2022/07/31 08:59:36;;;;;;;1999.90;999.90;;;;;;;37.95;36.37;95586.47;5116859;28;20258;-63
2022/07/31 09:02:03;;;;;;;1999.90;999.90;;;;;;;37.95;37.91;95580.78;5117112;28;20186;-64
2022/07/31 09:04:30;;;;;;;1999.90;999.90;;;;;;;38.77;34.02;95585.06;5116846;28;20206;-60
2022/07/31 09:06:59;;;;;;;1999.90;999.90;;;;;;;39.16;34.18;95574.78;5116643;28;20206;-60
2022/07/31 09:09:25;;;;;;;1999.90;999.90;;;;;;;39.06;33.61;95583.28;5116968;28;20267;-57
2022/07/31 09:11:53;;;;;;;1999.90;999.90;;;;;;;38.76;32.97;95583.56;5116493;28;20205;-59
2022/07/31 09:14:31;;;;;;;1999.90;999.90;;;;;;;38.13;34.08;95590.19;5134771;28;20193;-59
2022/07/31 09:16:56;;;;;;;1999.90;999.90;;;;;;;38.35;33.17;95584.28;5116578;28;20230;-59
2022/07/31 09:19:23;;;;;;;1999.90;999.90;;;;;;;38.32;33.42;95579.75;5116863;28;20187;-60
2022/07/31 09:21:51;;;;;;;1999.90;999.90;;;;;;;38.46;33.26;95565.94;5116637;28;20213;-60
2022/07/31 09:24:30;;;;;;;1999.90;999.90;;;;;;;39.36;30.85;95564.28;5117161;28;20182;-59
2022/07/31 09:27:06;;;;;;;1999.90;999.90;;;;;;;39.86;29.78;95557.69;5116585;28;20183;-64
2022/07/31 09:29:43;;;;;;;1999.90;999.90;;;;;;;39.81;30.30;95564.44;5116868;28;20179;-61
2022/07/31 09:32:13;;;;;;;1999.90;999.90;;;;;;;39.83;29.91;95561.72;5116330;28;20297;-62
2022/07/31 09:34:42;;;;;;;1999.90;999.90;;;;;;;39.58;28.69;95563.22;5116387;28;20190;-62
2022/07/31 09:37:12;;;;;;;1999.90;999.90;;;;;;;38.94;29.30;95567.97;5116065;28;20179;-60
2022/07/31 09:39:39;;;;;;;1999.90;999.90;;;;;;;38.15;31.02;95556.84;5116342;28;20186;-61
2022/07/31 09:42:05;;;;;;;1999.90;999.90;;;;;;;38.16;31.03;95560.47;5117143;28;20186;-63
2022/07/31 09:44:39;;;;;;;1999.90;999.90;;;;;;;39.07;29.53;95559.06;5119839;28;20178;-58
2022/07/31 09:47:05;;;;;;;1999.90;999.90;;;;;;;39.17;29.09;95548.44;5119938;28;20183;-61
2022/07/31 09:49:34;;;;;;;1999.90;999.90;;;;;;;39.06;29.72;95566.13;5120189;28;20186;-65
2022/07/31 09:51:59;;;;;;;1999.90;999.90;;;;;;;37.91;29.25;95557.56;5138057;28;20202;-61
2022/07/31 09:54:27;;;;;;;1999.90;999.90;;;;;;;38.43;30.12;95562.16;5119658;28;20183;-62
2022/07/31 09:56:52;;;;;;;1999.90;999.90;;;;;;;39.25;27.68;95565.50;5119438;28;20202;-61
2022/07/31 09:59:18;;;;;;;1999.90;999.90;;;;;;;39.19;27.96;95559.31;5119730;28;20567;-61
2022/07/31 10:01:47;;;;;;;1999.90;999.90;;;;;;;37.39;28.02;95552.91;5119679;28;20186;-61
2022/07/31 10:04:16;;;;;;;1999.90;999.90;;;;;;;36.21;28.19;95556.16;5119754;28;20187;-62
2022/07/31 10:06:42;;;;;;;1999.90;999.90;;;;;;;36.16;29.41;95554.28;5137582;28;20201;-61
2022/07/31 10:09:08;;;;;;;1999.90;999.90;;;;;;;37.70;28.08;95548.59;5137207;27;20289;-62
2022/07/31 10:11:34;;;;;;;1999.90;999.90;;;;;;;37.60;29.39;95550.53;5137403;28;20199;-63
2022/07/31 10:14:01;;;;;;;1999.90;999.90;;;;;;;37.31;29.10;95549.34;5119449;28;20193;-65
2022/07/31 10:16:31;;;;;;;1999.90;999.90;;;;;;;37.28;28.93;95544.03;5119578;28;20191;-60
2022/07/31 10:18:59;;;;;;;1999.90;999.90;;;;;;;37.80;27.96;95546.59;5119714;28;20191;-60
2022/07/31 10:21:32;;;;;;;1999.90;999.90;;;;;;;38.21;27.63;95540.25;5119778;28;20279;-61
2022/07/31 10:23:59;;;;;;;1999.90;999.90;;;;;;;38.58;27.88;95530.59;5119352;28;20183;-64
2022/07/31 10:26:25;;;;;;;1999.90;999.90;;;;;;;37.00;28.81;95541.47;5119198;28;20180;-59
2022/07/31 10:28:51;;;;;;;1999.90;999.90;;;;;;;36.67;29.46;95540.59;5119439;28;20197;-62
2022/07/31 10:31:17;;;;;;;1999.90;999.90;;;;;;;36.49;28.79;95536.06;5118908;28;20206;-64
2022/07/31 10:33:44;;;;;;;1999.90;999.90;;;;;;;36.10;30.55;95539.47;5118865;28;20247;-60
2022/07/31 10:36:21;;;;;;;1999.90;999.90;;;;;;;36.17;28.47;95544.41;5119066;28;20175;-67
2022/07/31 10:38:57;;;;;;;1999.90;999.90;;;;;;;37.12;28.55;95534.78;5119644;28;20190;-64
2022/07/31 10:41:38;;;;;;;1999.90;999.90;;;;;;;37.19;26.89;95545.41;5118835;28;20186;-59
2022/07/31 10:44:26;;;;;;;1999.90;999.90;;;;;;;36.22;28.46;95530.00;5119398;28;20292;-59
2022/07/31 10:46:52;;;;;;;1999.90;999.90;;;;;;;36.65;27.00;95540.41;5119236;28;20187;-60
2022/07/31 10:49:17;;;;;;;1999.90;999.90;;;;;;;35.32;29.78;95524.16;5118823;28;20277;-58
2022/07/31 10:51:50;;;;;;;1999.90;999.90;;;;;;;35.39;29.57;95534.06;5119015;28;20202;-59